Weather observations for the past three days for
Manistee County - Blacker Airport
Metric (Imperial)
Date Time (edt) Wind (kph) Vis. (km) Weather Sky Cond. Temperature (ºC) Relative Humidity Wind Chill (°C) Heat Index (°C) Pressure Precipitation (cm)
Air Dwpt 6 hour altimeter (cm) sea level (mb) 1 hr 3 hr 6 hr
Max. Min.
02 08:56 SE 6 16.09 Mostly Cloudy BKN110 18.9 17.8 93% 0 0.0
02 07:56 N 22 G 44 14.48 Thunderstorm Light Rain SCT023 SCT050 BKN075 18.9 17.2 24.4 -8.3 90% 0 0.0 0.18 0.18
02 06:56 Calm 16.09 Partly Cloudy SCT060 SCT120 21.7 21.1 96% 76.02 1013.2
02 05:56 S 6 16.09 Partly Cloudy SCT120 22.2 21.7 97% 75.95 1012.1
02 04:56 SW 9 16.09 Mostly Cloudy BKN110 23.3 21.7 91% 76.02 1013.0
02 03:56 W 7 16.09 A Few Clouds FEW110 23.3 22.2 94% 75.97 1012.3
02 02:56 Vrbl 6 16.09 Fair CLR 24.4 22.8 91% 24 75.97 1012.4
02 01:56 Calm 16.09 Fair CLR 23.3 22.8 27.2 23.3 97% 75.97 1012.4
02 00:56 Calm 14.48 Fair CLR 23.3 22.8 97% 75.95 1012.1
01 23:56 SW 6 16.09 Fair CLR 25 23.3 90% 26 75.97 1012.1
01 22:56 S 7 16.09 Fair CLR 25.6 23.9 90% 27 75.97 1012.5
01 21:56 Vrbl 6 16.09 Fair CLR 26.1 23.9 88% 28 75.97 1012.3
01 20:56 Calm 16.09 Fair CLR 26.1 23.9 88% 28 75.92 1011.8
01 19:56 Calm 16.09 Fair CLR 27.2 23.9 30.6 27.2 82% 30 75.95 1012.1
01 18:56 SW 11 16.09 Fair CLR 28.9 24.4 77% 34 75.95 1012.2
01 17:56 W 19 16.09 Fair CLR 28.9 24.4 77% 34 75.95 1012.3
01 16:56 W 19 16.09 Fair CLR 29.4 24.4 75% 35 75.95 1012.1
01 15:56 W 19 16.09 Fair CLR 29.4 24.4 75% 35 75.97 1012.4
01 14:56 W 17 16.09 Fair CLR 30 24.4 72% 36 76 1012.7
01 13:56 Calm 16.09 Fair CLR 29.4 24.4 30 20 75% 35 76.02 1013.0
01 12:56 W 9 16.09 Mostly Cloudy FEW019 BKN026 BKN042 27.8 23.9 79% 32 76.07 1013.7
01 11:56 NW 17 16.09 Overcast OVC018 27.2 23.3 79% 30 76.05 1013.7
01 10:56 Calm 16.09 Fair CLR 27.2 23.9 82% 30 76.02 1013.2
01 09:56 E 7 11.27 Partly Cloudy SCT003 23.9 22.8 94% 23 76.05 1013.3
01 08:56 E 7 2.41 Fog/Mist OVC003 21.7 21.7 100% 76.05 1013.5
01 07:56 E 7 4.02 Fog/Mist BKN041 20 20 21.1 18.9 100% 76.02 1013.2
01 06:56 E 6 3.22 Fog/Mist CLR 19.4 19.4 100% 75.97 1012.7
01 05:56 Calm 1.21 Fog/Mist VV007 19.4 19.4 100% 75.97 1012.4
01 04:56 SE 6 6.44 Fog/Mist CLR 20 20 100% 75.95 1012.1
01 03:56 Calm 4.83 Fog/Mist CLR 20 20 100% 75.95 1012.0
01 02:56 NE 6 8.05 Fog/Mist CLR 20.6 20 96% 75.95 1012.1
01 01:56 Calm 9.66 Fog/Mist CLR 20.6 20.6 26.1 20.6 100% 75.95 1012.0
01 00:56 NE 6 14.48 Mostly Cloudy BKN042 21.1 20.6 97% 75.95 1012.2
31 23:56 E 7 16.09 Fair CLR 21.7 21.1 96% 75.95 1012.3
31 22:56 Calm 16.09 Fair CLR 23.3 21.1 88% 75.95 1012.4
31 21:56 SW 6 16.09 Fair CLR 24.4 21.1 82% 25 75.97 1012.4
31 20:56 SW 6 16.09 Fair CLR 25 20.6 77% 26 75.87 1011.4
31 19:56 Vrbl 6 12.87 Fair CLR 26.1 20.6 29.4 26.1 72% 28 75.87 1011.3
31 18:56 SW 9 16.09 Fair CLR 26.7 20.6 69% 28 75.84 1010.9
31 17:56 SW 15 16.09 Fair CLR 28.3 21.1 65% 31 75.84 1010.7
31 16:56 SW 15 G 30 16.09 Fair CLR 28.3 20.6 63% 30 75.84 1010.9
31 15:56 SW 15 16.09 Fair CLR 28.3 20.6 63% 30 75.84 1010.8
31 14:56 SW 26 G 37 16.09 Fair CLR 28.9 20 59% 31 75.87 1011.2
31 12:56 S 15 16.09 Fair CLR 28.3 21.7 67% 31 75.9 1011.3
31 11:56 SE 15 16.09 A Few Clouds FEW090 25.6 21.7 79% 27 75.95 1012.2
31 09:56 SE 9 6.44 Fog/Mist BKN090 22.2 21.1 94% 76.02 1013.4
31 08:56 E 13 16.09 Overcast OVC085 21.7 21.1 96% 76.05 1013.4
31 07:56 E 13 6.44 Thunderstorm Light Rain Fog/Mist FEW021 BKN060 OVC075 20.6 20.6 21.1 20 100% 76.05 1013.7 0.89 0.91
31 06:56 E 7 11.27 Mostly Cloudy FEW004 BKN110 20.6 20.6 100% 75.97 1012.7 0.03
31 05:56 SE 7 12.87 Light Rain FEW043 SCT090 BKN110 20.6 20 96% 76.02 1013.2
31 04:56 E 7 11.27 A Few Clouds FEW090 20 20 100% 76.12 1014.5
31 03:56 Calm 16.09 A Few Clouds FEW090 20.6 20 96% 76.1 1014.2
31 02:56 SE 6 16.09 Fair CLR 20.6 20 96% 76.07 1013.8
31 01:56 Calm 16.09 Fair CLR 21.1 20 25 20.6 93% 76.07 1013.9
31 00:56 Calm 16.09 Fair CLR 21.1 20.6 97% 76.1 1014.1
30 23:56 Calm 16.09 Fair CLR 21.7 20 90% 76.05 1013.7
30 22:56 Calm 9.66 Fog/Mist CLR 21.7 20.6 94% 76.07 1014.2
30 21:56 Calm 16.09 Overcast OVC065 23.3 20.6 85% 76.07 1014.0
30 20:56 E 7 16.09 Overcast BKN025 OVC046 23.3 21.1 88% 76.02 1013.4
30 19:56 NE 6 16.09 Mostly Cloudy FEW046 BKN075 25 21.1 28.3 25 79% 26 76 1013.0
30 18:56 Calm 16.09 Overcast BKN046 OVC070 25.6 20 71% 27 76 1012.9
30 17:56 SW 9 16.09 Overcast BKN050 OVC070 26.1 20 69% 27 75.97 1012.6
30 16:56 S 17 16.09 Overcast OVC075 25.6 20 71% 27 76 1013.0
30 15:56 SW 13 16.09 Partly Cloudy SCT085 26.7 19.4 64% 28 76 1012.9
30 14:56 SW 19 G 30 16.09 Fair CLR 27.8 19.4 60% 29 76 1012.8
30 13:56 S 20 G 31 16.09 Fair CLR 27.2 19.4 27.2 18.9 62% 29 76 1013.0
30 12:56 S 20 G 26 16.09 Fair CLR 26.1 20 69% 27 76.02 1013.5
30 11:56 S 17 16.09 Partly Cloudy SCT070 24.4 20.6 79% 25 76.05 1013.8
30 10:56 Vrbl 9 16.09 Overcast OVC050 22.2 19.4 84% 76.1 1014.2
30 09:56 Vrbl 6 16.09 Overcast FEW013 OVC048 20.6 18.9 90% 76.1 1014.3
Date Time (edt) Wind (kph) Vis. (km) Weather Sky Cond. Air Dwpt Max. Min. Relative Humidity Wind Chill (°C) Heat Index (°C) altimeter (cm) sea level (mb) 1 hr 3 hr 6 hr
6 hour
Temperature (ºC) Pressure Precipitation (cm)